createdAt,value
2018-06-24T00:00:58.679Z,47.00
2018-06-24T00:03:26.776Z,47.00
2018-06-24T00:05:54.837Z,47.00
2018-06-24T00:08:23.215Z,46.90
2018-06-24T00:10:51.348Z,46.90
2018-06-24T00:13:19.425Z,46.90
2018-06-24T00:15:47.525Z,47.00
2018-06-24T00:18:15.584Z,47.00
2018-06-24T00:20:43.676Z,47.00
2018-06-24T00:23:11.767Z,47.00
2018-06-24T00:25:39.836Z,46.90
2018-06-24T00:28:07.929Z,46.90
2018-06-24T00:30:36.077Z,46.90
2018-06-24T00:33:04.160Z,46.90
2018-06-24T00:35:32.248Z,46.90
2018-06-24T00:38:00.308Z,46.90
2018-06-24T00:42:56.300Z,46.90
2018-06-24T00:45:24.364Z,46.90
2018-06-24T00:47:52.428Z,46.90
2018-06-24T00:50:20.508Z,46.90
2018-06-24T00:52:48.572Z,46.90
2018-06-24T00:55:16.627Z,46.90
2018-06-24T00:57:44.699Z,46.80
2018-06-24T01:00:15.124Z,46.90
2018-06-24T01:02:43.204Z,46.90
2018-06-24T01:05:12.468Z,46.90
2018-06-24T01:07:41.064Z,46.90
2018-06-24T01:10:09.174Z,46.90
2018-06-24T01:12:37.277Z,46.90
2018-06-24T01:15:05.388Z,46.80
2018-06-24T01:17:33.476Z,46.80
2018-06-24T01:20:03.024Z,46.80
2018-06-24T01:22:31.117Z,46.80
2018-06-24T01:24:59.169Z,46.80
2018-06-24T01:27:27.220Z,46.80
2018-06-24T01:29:55.268Z,46.80
2018-06-24T01:32:24.096Z,46.80
2018-06-24T01:34:52.769Z,46.80
2018-06-24T01:37:20.928Z,47.50
2018-06-24T01:39:49.002Z,46.90
2018-06-24T01:42:17.096Z,46.90
2018-06-24T01:44:45.147Z,46.90
2018-06-24T01:47:13.237Z,46.90
2018-06-24T01:49:41.437Z,46.90
2018-06-24T01:52:09.693Z,47.50
2018-06-24T01:54:37.911Z,46.90
2018-06-24T01:57:06.122Z,46.90
2018-06-24T01:59:34.292Z,46.90
2018-06-24T02:02:02.399Z,46.90
2018-06-24T02:04:30.980Z,47.00
2018-06-24T02:06:59.053Z,47.00
2018-06-24T02:09:27.152Z,47.00
2018-06-24T02:11:55.214Z,47.00
2018-06-24T02:14:23.263Z,47.00
2018-06-24T02:16:51.388Z,47.00
2018-06-24T02:19:19.664Z,47.00
2018-06-24T02:21:47.732Z,47.00
2018-06-24T02:24:15.851Z,47.00
2018-06-24T02:26:44.005Z,46.50
2018-06-24T02:29:12.044Z,47.10
2018-06-24T02:31:40.125Z,47.20
2018-06-24T02:34:08.228Z,47.20
2018-06-24T02:36:36.412Z,47.20
2018-06-24T02:39:07.219Z,47.20
2018-06-24T02:41:35.449Z,47.20
2018-06-24T02:44:03.669Z,47.20
2018-06-24T02:46:31.842Z,47.20
2018-06-24T02:49:00.047Z,47.30
2018-06-24T02:51:28.156Z,47.30
2018-06-24T02:53:56.205Z,47.30
2018-06-24T02:56:24.269Z,47.30
2018-06-24T02:58:52.349Z,47.30
2018-06-24T03:01:20.395Z,47.30
2018-06-24T03:03:48.574Z,47.40
2018-06-24T03:06:16.616Z,47.40
2018-06-24T03:08:44.687Z,47.40
2018-06-24T03:11:12.756Z,47.50
2018-06-24T03:13:40.817Z,47.40
2018-06-24T03:16:08.904Z,47.40
2018-06-24T03:18:36.976Z,47.50
2018-06-24T03:21:05.378Z,47.50
2018-06-24T03:23:33.462Z,47.50
2018-06-24T03:26:01.548Z,47.50
2018-06-24T03:28:29.608Z,48.10
2018-06-24T03:30:57.656Z,47.60
2018-06-24T03:33:25.737Z,47.50
2018-06-24T03:35:53.804Z,47.60
2018-06-24T03:38:22.010Z,47.60
2018-06-24T03:40:50.061Z,47.60
2018-06-24T03:43:18.151Z,47.60
2018-06-24T03:45:46.212Z,47.60
2018-06-24T03:48:14.398Z,47.60
2018-06-24T03:50:42.556Z,47.60
2018-06-24T03:53:10.625Z,47.60
2018-06-24T03:55:38.679Z,47.60
2018-06-24T03:58:06.776Z,47.60
2018-06-24T04:00:34.848Z,47.70
2018-06-24T04:03:02.916Z,47.70
2018-06-24T04:05:30.972Z,47.70
2018-06-24T04:10:26.994Z,47.70
2018-06-24T04:12:55.113Z,47.70
2018-06-24T04:15:23.177Z,47.70
2018-06-24T04:17:51.348Z,47.80
2018-06-24T04:20:19.449Z,47.70
2018-06-24T04:22:47.524Z,47.70
2018-06-24T04:25:15.592Z,47.60
2018-06-24T04:27:43.668Z,47.60
2018-06-24T04:30:11.790Z,47.60
2018-06-24T04:32:39.863Z,47.60
2018-06-24T04:35:07.946Z,47.60
2018-06-24T04:37:36.142Z,47.60
2018-06-24T04:40:04.237Z,47.50
2018-06-24T04:42:32.388Z,47.60
2018-06-24T04:45:00.461Z,47.60
2018-06-24T04:47:28.510Z,47.60
2018-06-24T04:49:56.561Z,47.50
2018-06-24T04:52:24.620Z,48.20
2018-06-24T04:54:52.680Z,47.50
2018-06-24T04:57:20.800Z,47.60
2018-06-24T04:59:48.893Z,47.60
2018-06-24T05:02:16.945Z,47.60
2018-06-24T05:04:45.056Z,47.60
2018-06-24T05:07:13.135Z,47.60
2018-06-24T05:09:41.186Z,47.60
2018-06-24T05:12:09.317Z,47.60
2018-06-24T05:14:37.437Z,47.60
2018-06-24T05:17:05.596Z,47.70
2018-06-24T05:19:33.665Z,47.70
2018-06-24T05:22:01.773Z,47.70
2018-06-24T05:24:30.170Z,47.70
2018-06-24T05:26:58.228Z,47.70
2018-06-24T05:29:26.289Z,47.40
2018-06-24T05:31:54.368Z,47.70
2018-06-24T05:34:22.425Z,47.70
2018-06-24T05:36:50.560Z,47.70
2018-06-24T05:39:18.640Z,47.70
2018-06-24T05:41:46.737Z,47.70
2018-06-24T05:44:14.796Z,47.60
2018-06-24T05:46:42.900Z,47.60
2018-06-24T05:49:11.007Z,47.70
2018-06-24T05:51:39.165Z,47.70
2018-06-24T05:54:07.312Z,47.60
2018-06-24T05:56:35.414Z,47.60
2018-06-24T05:59:03.558Z,47.60
2018-06-24T06:01:31.709Z,47.70
2018-06-24T06:03:59.768Z,47.80
2018-06-24T06:06:27.845Z,47.80
2018-06-24T06:08:55.942Z,47.80
2018-06-24T06:11:24.115Z,47.80
2018-06-24T06:13:52.273Z,47.80
2018-06-24T06:16:20.378Z,47.80
2018-06-24T06:18:48.435Z,48.40
2018-06-24T06:21:16.504Z,47.70
2018-06-24T06:23:44.784Z,47.70
2018-06-24T06:26:12.975Z,47.20
2018-06-24T06:28:41.034Z,47.70
2018-06-24T06:31:09.105Z,47.70
2018-06-24T06:33:37.275Z,47.70
2018-06-24T06:36:05.453Z,47.70
2018-06-24T06:41:13.375Z,47.70
2018-06-24T06:43:41.572Z,47.70
2018-06-24T06:46:12.372Z,47.80
2018-06-24T06:48:40.659Z,47.80
2018-06-24T06:51:10.248Z,47.80
2018-06-24T06:53:38.462Z,47.80
2018-06-24T06:56:07.168Z,47.80
2018-06-24T06:58:35.433Z,47.80
2018-06-24T07:01:03.719Z,47.80
2018-06-24T07:06:00.230Z,47.80
2018-06-24T07:08:28.339Z,47.80
2018-06-24T07:10:56.460Z,47.80
2018-06-24T07:13:24.650Z,47.80
2018-06-24T07:15:52.820Z,47.80
2018-06-24T07:18:20.926Z,47.80
2018-06-24T07:20:49.062Z,47.90
2018-06-24T07:23:17.280Z,47.90
2018-06-24T07:25:46.068Z,47.90
2018-06-24T07:28:14.496Z,48.20
2018-06-24T07:30:42.990Z,47.90
2018-06-24T07:33:11.386Z,47.90
2018-06-24T07:35:39.528Z,47.90
2018-06-24T07:38:07.988Z,48.00
2018-06-24T07:40:36.156Z,48.00
2018-06-24T07:43:04.457Z,48.00
2018-06-24T07:45:32.627Z,48.00
2018-06-24T07:48:00.717Z,48.00
2018-06-24T07:50:28.760Z,48.00
2018-06-24T07:52:56.942Z,48.00
2018-06-24T07:55:25.216Z,48.00
2018-06-24T07:57:53.296Z,48.10
2018-06-24T08:00:21.387Z,48.00
2018-06-24T08:02:49.441Z,48.00
2018-06-24T08:05:17.659Z,48.00
2018-06-24T08:07:45.863Z,48.00
2018-06-24T08:12:41.900Z,47.80
2018-06-24T08:15:09.994Z,47.70
2018-06-24T08:17:38.056Z,47.70
2018-06-24T08:20:06.221Z,47.60
2018-06-24T08:22:34.413Z,47.50
2018-06-24T08:25:02.589Z,47.50
2018-06-24T08:27:30.796Z,47.50
2018-06-24T08:29:58.874Z,47.40
2018-06-24T08:32:26.949Z,47.40
2018-06-24T08:34:55.028Z,47.50
2018-06-24T08:37:23.110Z,47.50
2018-06-24T08:39:51.215Z,47.50
2018-06-24T08:42:19.397Z,47.40
2018-06-24T08:44:47.452Z,48.00
2018-06-24T08:49:43.459Z,47.90
2018-06-24T08:52:11.561Z,48.50
2018-06-24T08:54:39.718Z,48.50
2018-06-24T08:57:07.849Z,48.40
2018-06-24T08:59:35.993Z,48.30
2018-06-24T09:02:04.301Z,48.50
2018-06-24T09:04:32.606Z,48.60
2018-06-24T09:07:00.753Z,48.70
2018-06-24T09:09:28.809Z,48.70
2018-06-24T09:14:24.841Z,48.60
2018-06-24T09:16:52.896Z,48.60
2018-06-24T09:19:21.005Z,48.50
2018-06-24T09:21:49.120Z,48.40
2018-06-24T09:24:17.193Z,48.30
2018-06-24T09:29:13.641Z,48.30
2018-06-24T09:31:41.940Z,48.40
2018-06-24T09:34:10.110Z,48.50
2018-06-24T09:36:38.316Z,48.40
2018-06-24T09:39:09.227Z,48.60
2018-06-24T09:41:37.458Z,48.50
2018-06-24T09:44:05.959Z,49.20
2018-06-24T09:46:34.520Z,48.60
2018-06-24T09:49:02.667Z,48.50
2018-06-24T09:51:30.793Z,48.50
2018-06-24T09:53:58.958Z,48.50
2018-06-24T09:56:27.023Z,48.60
2018-06-24T09:58:55.101Z,48.50
2018-06-24T10:01:23.228Z,48.70
2018-06-24T10:03:51.397Z,48.70
2018-06-24T10:08:47.404Z,48.60
2018-06-24T10:11:15.518Z,48.50
2018-06-24T10:13:43.716Z,48.50
2018-06-24T10:16:11.828Z,48.50
2018-06-24T10:18:40.089Z,48.40
2018-06-24T10:21:08.275Z,48.50
2018-06-24T10:23:36.446Z,48.50
2018-06-24T10:28:32.654Z,48.60
2018-06-24T10:31:01.965Z,48.50
2018-06-24T10:33:30.133Z,48.40
2018-06-24T10:38:26.079Z,48.40
2018-06-24T10:40:54.160Z,48.50
2018-06-24T10:43:22.245Z,48.40
2018-06-24T10:48:18.284Z,48.30
2018-06-24T10:50:46.360Z,48.30
2018-06-24T10:53:14.586Z,48.40
2018-06-24T10:55:42.700Z,48.40
2018-06-24T10:58:10.936Z,49.30
2018-06-24T11:00:39.139Z,48.70
2018-06-24T11:03:07.287Z,48.90
2018-06-24T11:05:35.442Z,49.00
2018-06-24T11:10:31.779Z,48.70
2018-06-24T11:12:59.952Z,48.60
2018-06-24T11:15:28.040Z,48.50
2018-06-24T11:17:56.116Z,48.70
2018-06-24T11:20:24.220Z,48.50
2018-06-24T11:22:52.358Z,48.50
2018-06-24T11:25:20.443Z,48.70
2018-06-24T11:27:48.532Z,48.60
2018-06-24T11:30:16.624Z,48.90
2018-06-24T11:32:44.727Z,48.70
2018-06-24T11:35:12.829Z,49.20
2018-06-24T11:37:40.956Z,48.80
2018-06-24T11:40:09.132Z,49.00
2018-06-24T11:42:37.273Z,49.00
2018-06-24T11:45:05.679Z,49.00
2018-06-24T11:47:33.856Z,49.10
2018-06-24T11:50:02.338Z,49.20
2018-06-24T11:52:30.592Z,49.20
2018-06-24T11:54:58.690Z,49.30
2018-06-24T11:57:26.778Z,49.20
2018-06-24T11:59:54.948Z,49.70
2018-06-24T12:02:23.082Z,49.10
2018-06-24T12:04:51.209Z,49.70
2018-06-24T12:07:19.397Z,49.20
2018-06-24T12:09:47.571Z,49.20
2018-06-24T12:12:15.633Z,49.90
2018-06-24T12:14:43.733Z,49.30
2018-06-24T12:17:12.151Z,50.10
2018-06-24T12:19:40.427Z,49.20
2018-06-24T12:22:08.600Z,50.10
2018-06-24T12:24:36.740Z,50.10
2018-06-24T12:27:05.144Z,50.10
2018-06-24T12:29:33.351Z,50.10
2018-06-24T12:32:01.628Z,50.10
2018-06-24T12:34:29.730Z,50.00
2018-06-24T12:36:57.872Z,49.60
2018-06-24T12:39:25.980Z,49.90
2018-06-24T12:41:54.093Z,50.00
2018-06-24T12:44:22.295Z,50.10
2018-06-24T12:46:50.488Z,50.20
2018-06-24T12:49:18.649Z,50.30
2018-06-24T12:51:46.822Z,50.50
2018-06-24T12:54:14.920Z,50.30
2018-06-24T12:56:43.079Z,50.20
2018-06-24T12:59:11.388Z,50.30
2018-06-24T13:01:39.401Z,50.30
2018-06-24T13:04:07.693Z,50.00
2018-06-24T13:06:36.050Z,49.90
2018-06-24T13:09:07.297Z,50.80
2018-06-24T13:11:35.959Z,50.50
2018-06-24T13:14:04.808Z,50.30
2018-06-24T13:16:32.957Z,50.40
2018-06-24T13:19:01.124Z,50.90
2018-06-24T13:21:29.377Z,50.70
2018-06-24T13:23:57.556Z,50.50
2018-06-24T13:28:53.673Z,51.30
2018-06-24T13:31:21.825Z,51.70
2018-06-24T13:33:49.936Z,50.90
2018-06-24T13:36:18.057Z,51.00
2018-06-24T13:38:46.196Z,51.20
2018-06-24T13:41:14.569Z,51.80
2018-06-24T13:43:42.668Z,51.10
2018-06-24T13:48:38.954Z,51.10
2018-06-24T13:51:07.243Z,51.50
2018-06-24T13:53:35.452Z,51.10
2018-06-24T13:56:03.622Z,51.40
2018-06-24T13:58:31.721Z,51.60
2018-06-24T14:03:27.871Z,51.90
2018-06-24T14:05:55.957Z,52.30
2018-06-24T14:08:24.159Z,51.70
2018-06-24T14:10:52.236Z,51.60
2018-06-24T14:13:20.359Z,52.20
2018-06-24T14:15:48.431Z,52.60
2018-06-24T14:18:16.488Z,51.80
2018-06-24T14:20:44.556Z,51.90
2018-06-24T14:23:12.768Z,51.70
2018-06-24T14:25:40.751Z,52.30
2018-06-24T14:28:08.847Z,52.30
2018-06-24T14:30:36.917Z,52.10
2018-06-24T14:33:05.125Z,52.10
2018-06-24T14:35:33.197Z,52.50
2018-06-24T14:38:01.316Z,51.80
2018-06-24T14:40:29.477Z,52.20
2018-06-24T14:42:57.540Z,52.00
2018-06-24T14:45:25.621Z,51.70
2018-06-24T14:47:53.737Z,52.50
2018-06-24T14:50:21.930Z,52.50
2018-06-24T14:52:50.070Z,52.50
2018-06-24T14:55:18.297Z,52.10
2018-06-24T14:57:46.425Z,52.10
2018-06-24T15:00:14.509Z,51.80
2018-06-24T15:02:43.052Z,52.00
2018-06-24T15:05:12.185Z,51.60
2018-06-24T15:07:40.628Z,51.50
2018-06-24T15:10:08.973Z,51.90
2018-06-24T15:12:37.085Z,51.80
2018-06-24T15:15:05.149Z,51.80
2018-06-24T15:17:33.219Z,51.20
2018-06-24T15:20:01.408Z,50.80
2018-06-24T15:22:29.472Z,50.70
2018-06-24T15:24:57.541Z,50.60
2018-06-24T15:27:25.628Z,50.80
2018-06-24T15:29:53.713Z,51.00
2018-06-24T15:32:22.505Z,50.70
2018-06-24T15:34:50.626Z,50.70
2018-06-24T15:37:18.731Z,50.60
2018-06-24T15:42:15.232Z,50.60
2018-06-24T15:44:43.451Z,50.60
2018-06-24T15:47:11.521Z,50.50
2018-06-24T15:49:39.632Z,50.50
2018-06-24T15:52:07.717Z,50.20
2018-06-24T15:54:35.807Z,49.80
2018-06-24T15:57:03.885Z,49.90
2018-06-24T15:59:32.026Z,49.80
2018-06-24T16:02:00.334Z,49.60
2018-06-24T16:04:28.504Z,49.50
2018-06-24T16:06:56.560Z,49.50
2018-06-24T16:09:24.756Z,49.30
2018-06-24T16:11:52.818Z,49.30
2018-06-24T16:14:20.901Z,49.30
2018-06-24T16:16:49.053Z,49.30
2018-06-24T16:19:17.168Z,49.30
2018-06-24T16:21:45.613Z,49.50
2018-06-24T16:24:13.736Z,49.50
2018-06-24T16:26:41.829Z,49.80
2018-06-24T16:29:09.899Z,49.60
2018-06-24T16:31:37.960Z,49.60
2018-06-24T16:34:06.248Z,49.80
2018-06-24T16:36:34.296Z,49.70
2018-06-24T16:39:02.453Z,49.80
2018-06-24T16:41:30.572Z,49.80
2018-06-24T16:43:58.720Z,49.90
2018-06-24T16:46:26.768Z,49.80
2018-06-24T16:48:58.059Z,49.80
2018-06-24T16:51:26.260Z,49.80
2018-06-24T16:53:54.320Z,49.70
2018-06-24T16:56:22.571Z,49.70
2018-06-24T16:58:50.719Z,49.70
2018-06-24T17:01:18.928Z,49.60
2018-06-24T17:03:47.167Z,49.60
2018-06-24T17:06:15.181Z,49.60
2018-06-24T17:08:43.345Z,49.60
2018-06-24T17:11:11.434Z,49.60
2018-06-24T17:13:39.497Z,49.50
2018-06-24T17:16:07.540Z,49.60
2018-06-24T17:18:35.692Z,49.50
2018-06-24T17:23:31.716Z,49.30
2018-06-24T17:25:59.877Z,49.50
2018-06-24T17:28:28.100Z,49.50
2018-06-24T17:30:56.772Z,49.50
2018-06-24T17:33:24.940Z,49.50
2018-06-24T17:35:53.021Z,49.50
2018-06-24T17:38:21.249Z,49.50
2018-06-24T17:40:55.769Z,49.70
2018-06-24T17:43:23.832Z,49.50
2018-06-24T17:45:51.945Z,49.60
2018-06-24T17:48:20.116Z,50.10
2018-06-24T17:50:48.276Z,49.60
2018-06-24T17:53:16.399Z,49.60
2018-06-24T17:55:44.420Z,49.60
2018-06-24T17:58:12.478Z,49.50
2018-06-24T18:00:40.558Z,49.50
2018-06-24T18:03:08.618Z,49.50
2018-06-24T18:05:36.857Z,49.50
2018-06-24T18:08:05.478Z,49.50
2018-06-24T18:10:33.531Z,49.50
2018-06-24T18:13:01.616Z,49.50
2018-06-24T18:15:29.710Z,49.50
2018-06-24T18:17:57.792Z,49.50
2018-06-24T18:20:26.611Z,49.50
2018-06-24T18:22:54.789Z,49.50
2018-06-24T18:25:22.917Z,49.50
2018-06-24T18:27:51.185Z,49.50
2018-06-24T18:30:19.317Z,49.50
2018-06-24T18:32:48.271Z,49.50
2018-06-24T18:35:16.566Z,49.50
2018-06-24T18:37:44.743Z,49.50
2018-06-24T18:40:12.894Z,49.50
2018-06-24T18:42:41.087Z,49.50
2018-06-24T18:45:09.172Z,49.50
2018-06-24T18:47:37.304Z,49.50
2018-06-24T18:50:05.372Z,49.60
2018-06-24T18:52:33.628Z,49.60
2018-06-24T18:55:01.690Z,49.50
2018-06-24T18:57:29.916Z,49.50
2018-06-24T18:59:57.975Z,49.50
2018-06-24T19:02:26.128Z,49.50
2018-06-24T19:04:54.300Z,49.50
2018-06-24T19:07:22.465Z,49.50
2018-06-24T19:09:50.658Z,49.50
2018-06-24T19:12:18.773Z,49.50
2018-06-24T19:17:14.896Z,49.50
2018-06-24T19:19:42.984Z,49.50
2018-06-24T19:22:11.068Z,49.50
2018-06-24T19:24:39.162Z,49.50
2018-06-24T19:27:07.208Z,49.50
2018-06-24T19:29:35.348Z,49.50
2018-06-24T19:32:03.387Z,49.50
2018-06-24T19:34:32.538Z,49.60
2018-06-24T19:37:00.656Z,49.50
2018-06-24T19:39:28.758Z,49.50
2018-06-24T19:41:56.871Z,49.50
2018-06-24T19:44:25.082Z,49.50
2018-06-24T19:46:53.219Z,49.50
2018-06-24T19:49:21.388Z,49.50
2018-06-24T19:51:49.576Z,49.40
2018-06-24T19:54:18.632Z,49.40
2018-06-24T19:56:46.935Z,49.40
2018-06-24T19:59:14.939Z,49.40
2018-06-24T20:01:43.152Z,49.40
2018-06-24T20:04:11.426Z,49.40
2018-06-24T20:06:39.478Z,49.40
2018-06-24T20:09:08.951Z,49.40
2018-06-24T20:11:37.027Z,50.10
2018-06-24T20:19:00.716Z,49.40
2018-06-24T20:21:28.773Z,49.50
2018-06-24T20:23:56.836Z,49.50
2018-06-24T20:26:24.984Z,49.50
2018-06-24T20:28:53.353Z,49.50
2018-06-24T20:31:21.492Z,49.60
2018-06-24T20:33:49.584Z,49.60
2018-06-24T20:36:17.732Z,49.80
2018-06-24T20:38:45.884Z,49.80
2018-06-24T20:41:13.929Z,50.00
2018-06-24T20:43:42.040Z,50.00
2018-06-24T20:46:10.101Z,50.10
2018-06-24T20:48:38.407Z,50.20
2018-06-24T20:51:06.553Z,50.30
2018-06-24T20:53:34.615Z,50.50
2018-06-24T20:56:02.684Z,50.50
2018-06-24T20:58:30.741Z,50.60
2018-06-24T21:00:58.800Z,50.70
2018-06-24T21:03:26.863Z,50.80
2018-06-24T21:05:54.970Z,50.80
2018-06-24T21:08:23.030Z,50.90
2018-06-24T21:10:51.120Z,51.00
2018-06-24T21:13:19.236Z,51.10
2018-06-24T21:15:47.519Z,51.10
2018-06-24T21:18:15.656Z,51.10
2018-06-24T21:20:43.720Z,51.10
2018-06-24T21:23:11.801Z,51.20
2018-06-24T21:25:39.882Z,51.20
2018-06-24T21:28:07.980Z,51.30
2018-06-24T21:30:36.048Z,51.20
2018-06-24T21:33:04.206Z,51.30
2018-06-24T21:38:00.253Z,51.30
2018-06-24T21:40:28.313Z,51.30
2018-06-24T21:42:56.355Z,51.40
2018-06-24T21:45:24.501Z,51.30
2018-06-24T21:47:52.564Z,51.30
2018-06-24T21:50:20.680Z,51.20
2018-06-24T21:52:48.804Z,51.20
2018-06-24T21:55:16.926Z,51.20
2018-06-24T21:57:44.986Z,51.20
2018-06-24T22:00:13.081Z,51.20
2018-06-24T22:02:41.145Z,51.20
2018-06-24T22:05:09.208Z,51.20
2018-06-24T22:07:37.272Z,51.20
2018-06-24T22:10:05.655Z,51.20
2018-06-24T22:12:33.708Z,51.20
2018-06-24T22:15:01.777Z,51.20
2018-06-24T22:17:29.844Z,51.10
2018-06-24T22:19:57.910Z,51.10
2018-06-24T22:22:26.013Z,51.10
2018-06-24T22:24:54.131Z,51.10
2018-06-24T22:27:22.273Z,51.10
2018-06-24T22:29:50.388Z,51.00
2018-06-24T22:32:18.505Z,51.00
2018-06-24T22:34:46.629Z,51.00
2018-06-24T22:37:15.195Z,51.60
2018-06-24T22:39:43.269Z,51.00
2018-06-24T22:42:11.416Z,51.00
2018-06-24T22:44:39.551Z,50.90
2018-06-24T22:47:07.592Z,50.90
2018-06-24T22:49:35.672Z,50.90
2018-06-24T22:52:03.757Z,50.90
2018-06-24T22:54:32.456Z,50.90
2018-06-24T22:57:00.565Z,50.90
2018-06-24T22:59:40.216Z,50.80
2018-06-24T23:02:08.291Z,50.80
2018-06-24T23:04:36.369Z,50.80
2018-06-24T23:07:04.485Z,50.70
2018-06-24T23:09:32.621Z,50.70
2018-06-24T23:12:00.795Z,50.70
2018-06-24T23:14:28.848Z,50.70
2018-06-24T23:16:56.909Z,50.70
2018-06-24T23:19:25.004Z,50.70
2018-06-24T23:21:53.120Z,50.70
2018-06-24T23:24:21.233Z,50.60
2018-06-24T23:26:49.336Z,50.60
2018-06-24T23:29:17.434Z,50.60
2018-06-24T23:31:45.494Z,50.60
2018-06-24T23:34:13.628Z,50.50
2018-06-24T23:36:41.702Z,50.50
2018-06-24T23:39:10.379Z,50.50
2018-06-24T23:41:38.464Z,51.00
2018-06-24T23:44:06.566Z,50.50
2018-06-24T23:46:34.612Z,50.40
2018-06-24T23:49:02.706Z,50.40
2018-06-24T23:51:30.769Z,50.40
2018-06-24T23:53:59.001Z,50.40
2018-06-24T23:56:27.065Z,50.30
2018-06-24T23:58:55.160Z,50.30
